Accueil
METAR-TAF:

METAR-TAF

Aéroports :

Aéroport international Léopold-Sédar-Senghor

Dakar, Sénégal

latitude: 14-44N, longitude: 017-30W, altitude: 27 m

Observation

Le bulletin a été fait il y a 24 minutes, à 21:00 UTC
Vent 6 kt de nord/nord-ouest
Température 27°C
Humidité 74%
Pression 1012 hPa
Visibilité: 8000 m
Nuages épars à une hauteur de 1500 ft

METAR: GOOY 192100Z 34006KT 8000 SCT015 27/22 Q1012

Heure: 21:24 (21:24 UTC)

Prévision

Le bulletin a été fait il y a 3 heures et 54 minutes, à 17:30 UTC
Prévision valable du 19 à 18 UTC au 20 à 24 UTC
Vent 8 kt de ouest/nord-ouest
Visibilité 10 km ou plus
Nuages épars à une hauteur de 1300 ft

TAF: GOOY 191730Z 1918/2024 30008KT 9999 SCT013

Observations et prévisions météorologiques de plus de 4000 aéroports (messages METAR et TAF).

Les stations disponibles sont représentées par des disques jaunes et rouges sur la carte.

Passer la souris dessus pour voir le nom de la station.

Cliquer dessus pour voir les observations et prévisions météorologiques.

Pour changer de carte: cliquez sur les boutons verts avec une croix noire pour zoomer, sur le bouton vert avec un tiret pour effectuer un zoom arrière, ou sur les flèches vertes pour les cartes adjacentes.


METAR-TAF: